createdAt,value
2022-12-27T00:00:36.271Z,22.30
2022-12-27T00:02:38.371Z,22.41
2022-12-27T00:04:39.703Z,22.48
2022-12-27T00:06:41.132Z,22.53
2022-12-27T00:08:42.551Z,22.60
2022-12-27T00:10:43.863Z,22.58
2022-12-27T00:12:45.162Z,22.60
2022-12-27T00:14:46.474Z,22.69
2022-12-27T00:16:47.822Z,22.72
2022-12-27T00:18:49.533Z,22.72
2022-12-27T00:20:50.838Z,22.73
2022-12-27T00:22:52.139Z,22.71
2022-12-27T00:24:54.401Z,22.71
2022-12-27T00:26:55.810Z,23.03
2022-12-27T00:28:57.157Z,22.79
2022-12-27T00:30:58.479Z,22.64
2022-12-27T00:32:59.799Z,22.61
2022-12-27T00:35:01.161Z,22.54
2022-12-27T00:37:02.570Z,21.94
2022-12-27T00:39:03.872Z,19.46
2022-12-27T00:41:05.179Z,18.41
2022-12-27T00:43:06.527Z,19.49
2022-12-27T00:45:07.888Z,20.35
2022-12-27T00:47:09.222Z,20.76
2022-12-27T00:49:10.603Z,20.93
2022-12-27T00:51:11.926Z,21.01
2022-12-27T00:53:13.260Z,21.05
2022-12-27T00:55:14.592Z,21.12
2022-12-27T00:57:15.931Z,21.19
2022-12-27T00:59:17.227Z,21.25
2022-12-27T01:01:18.710Z,21.33
2022-12-27T01:03:20.153Z,21.42
2022-12-27T01:05:22.019Z,21.51
2022-12-27T01:07:23.369Z,21.61
2022-12-27T01:09:24.662Z,21.69
2022-12-27T01:11:26.980Z,21.73
2022-12-27T01:13:28.329Z,21.78
2022-12-27T01:15:29.628Z,21.80
2022-12-27T01:17:30.941Z,21.87
2022-12-27T01:19:32.391Z,21.87
2022-12-27T01:21:33.697Z,21.90
2022-12-27T01:23:34.997Z,21.91
2022-12-27T01:25:36.347Z,21.91
2022-12-27T01:27:37.705Z,21.91
2022-12-27T01:29:39.038Z,21.91
2022-12-27T01:31:40.450Z,21.89
2022-12-27T01:33:41.787Z,21.86
2022-12-27T01:35:43.091Z,21.83
2022-12-27T01:37:44.430Z,21.78
2022-12-27T01:39:45.734Z,21.74
2022-12-27T01:42:05.914Z,21.68
2022-12-27T01:44:07.247Z,21.59
2022-12-27T01:46:08.638Z,21.52
2022-12-27T01:48:09.987Z,21.46
2022-12-27T01:50:11.349Z,21.40
2022-12-27T01:52:12.646Z,21.36
2022-12-27T01:54:13.981Z,21.30
2022-12-27T01:56:15.337Z,21.25
2022-12-27T01:58:16.674Z,21.20
2022-12-27T02:00:18.061Z,21.17
2022-12-27T02:02:19.563Z,21.13
2022-12-27T02:04:21.019Z,21.13
2022-12-27T02:06:22.373Z,21.09
2022-12-27T02:08:23.764Z,21.04
2022-12-27T02:10:25.145Z,21.01
2022-12-27T02:12:26.632Z,20.99
2022-12-27T02:14:28.567Z,21.01
2022-12-27T02:16:30.003Z,21.00
2022-12-27T02:18:31.403Z,20.99
2022-12-27T02:20:32.855Z,20.98
2022-12-27T02:22:54.110Z,20.11
2022-12-27T02:24:55.443Z,21.04
2022-12-27T02:26:57.086Z,21.07
2022-12-27T02:28:58.422Z,21.15
2022-12-27T02:30:59.919Z,21.24
2022-12-27T02:33:01.308Z,21.32
2022-12-27T02:35:02.710Z,21.41
2022-12-27T02:37:04.074Z,21.47
2022-12-27T02:39:05.424Z,21.57
2022-12-27T02:41:25.277Z,21.63
2022-12-27T02:43:44.983Z,21.68
2022-12-27T02:46:04.919Z,21.72
2022-12-27T02:48:25.172Z,21.74
2022-12-27T02:50:45.244Z,21.75
2022-12-27T02:53:05.189Z,21.76
2022-12-27T02:55:06.642Z,21.79
2022-12-27T02:57:11.130Z,21.77
2022-12-27T02:59:12.530Z,21.75
2022-12-27T03:01:32.426Z,21.73
2022-12-27T03:03:35.523Z,21.69
2022-12-27T03:05:38.613Z,21.66
2022-12-27T03:07:39.907Z,21.60
2022-12-27T03:10:00.204Z,21.54
2022-12-27T03:12:20.150Z,21.48
2022-12-27T03:14:40.215Z,21.44
2022-12-27T03:16:41.770Z,21.38
2022-12-27T03:18:43.105Z,21.36
2022-12-27T03:21:02.955Z,21.32
2022-12-27T03:23:22.871Z,21.26
2022-12-27T03:25:30.151Z,21.20
2022-12-27T03:27:31.462Z,21.14
2022-12-27T03:29:51.499Z,21.09
2022-12-27T03:32:11.595Z,21.08
2022-12-27T03:34:31.587Z,21.05
2022-12-27T03:36:51.432Z,21.06
2022-12-27T03:38:52.774Z,21.02
2022-12-27T03:41:12.614Z,21.01
2022-12-27T03:43:13.960Z,21.00
2022-12-27T03:45:15.319Z,21.00
2022-12-27T03:47:16.663Z,21.03
2022-12-27T03:49:17.956Z,21.06
2022-12-27T03:51:21.319Z,21.12
2022-12-27T03:53:22.728Z,21.19
2022-12-27T03:55:28.434Z,21.25
2022-12-27T03:57:32.929Z,21.32
2022-12-27T03:59:34.268Z,20.62
2022-12-27T04:01:35.616Z,21.43
2022-12-27T04:03:37.101Z,21.48
2022-12-27T04:05:38.440Z,21.54
2022-12-27T04:07:39.791Z,21.60
2022-12-27T04:09:59.758Z,21.63
2022-12-27T04:12:19.683Z,21.68
2022-12-27T04:14:39.815Z,21.72
2022-12-27T04:16:59.711Z,21.74
2022-12-27T04:19:19.668Z,21.77
2022-12-27T04:21:39.627Z,21.80
2022-12-27T04:23:59.448Z,21.87
2022-12-27T04:26:19.388Z,21.94
2022-12-27T04:28:39.269Z,21.86
2022-12-27T04:30:59.400Z,21.76
2022-12-27T04:33:19.514Z,21.69
2022-12-27T04:35:20.867Z,21.68
2022-12-27T04:37:22.215Z,21.64
2022-12-27T04:39:23.631Z,21.55
2022-12-27T04:41:43.495Z,21.49
2022-12-27T04:44:03.435Z,21.43
2022-12-27T04:46:23.332Z,21.38
2022-12-27T04:48:43.665Z,21.35
2022-12-27T04:51:03.443Z,21.29
2022-12-27T04:53:23.246Z,21.27
2022-12-27T04:55:24.851Z,21.23
2022-12-27T04:57:26.251Z,21.19
2022-12-27T04:59:46.393Z,21.15
2022-12-27T05:02:06.098Z,21.10
2022-12-27T05:04:07.449Z,21.07
2022-12-27T05:06:08.852Z,21.03
2022-12-27T05:08:28.896Z,20.98
2022-12-27T05:10:48.839Z,20.91
2022-12-27T05:13:08.770Z,20.86
2022-12-27T05:15:10.109Z,20.81
2022-12-27T05:17:11.448Z,20.76
2022-12-27T05:19:12.792Z,20.73
2022-12-27T05:21:14.214Z,20.73
2022-12-27T05:23:34.218Z,20.81
2022-12-27T05:25:35.596Z,20.97
2022-12-27T05:27:36.893Z,21.11
2022-12-27T05:29:38.249Z,21.24
2022-12-27T05:31:39.647Z,21.38
2022-12-27T05:33:41.035Z,21.46
2022-12-27T05:35:42.337Z,21.55
2022-12-27T05:37:43.638Z,21.61
2022-12-27T05:39:44.976Z,21.69
2022-12-27T05:41:46.307Z,21.73
2022-12-27T05:43:47.643Z,21.79
2022-12-27T05:45:48.933Z,21.84
2022-12-27T05:47:50.287Z,21.81
2022-12-27T05:49:51.633Z,21.89
2022-12-27T05:51:52.970Z,21.93
2022-12-27T05:53:54.436Z,21.92
2022-12-27T05:55:55.878Z,21.93
2022-12-27T05:57:57.200Z,21.97
2022-12-27T05:59:58.488Z,21.99
2022-12-27T06:01:59.964Z,21.92
2022-12-27T06:04:01.452Z,21.82
2022-12-27T06:06:03.701Z,21.77
2022-12-27T06:08:04.991Z,21.70
2022-12-27T06:10:06.289Z,21.67
2022-12-27T06:12:07.618Z,21.65
2022-12-27T06:14:08.942Z,21.60
2022-12-27T06:16:10.307Z,21.55
2022-12-27T06:18:11.678Z,21.49
2022-12-27T06:20:13.032Z,21.42
2022-12-27T06:22:14.410Z,21.37
2022-12-27T06:24:15.747Z,21.33
2022-12-27T06:26:17.073Z,21.26
2022-12-27T06:28:18.411Z,21.21
2022-12-27T06:30:19.792Z,21.18
2022-12-27T06:32:21.213Z,21.17
2022-12-27T06:34:22.577Z,21.14
2022-12-27T06:36:24.198Z,21.09
2022-12-27T06:38:25.577Z,21.05
2022-12-27T06:40:26.918Z,21.05
2022-12-27T06:42:28.265Z,21.06
2022-12-27T06:44:29.564Z,21.07
2022-12-27T06:46:30.867Z,21.06
2022-12-27T06:48:32.214Z,21.09
2022-12-27T06:50:33.520Z,21.11
2022-12-27T06:52:34.887Z,21.10
2022-12-27T06:54:36.203Z,21.12
2022-12-27T06:56:37.539Z,21.18
2022-12-27T06:58:38.838Z,21.28
2022-12-27T07:00:40.219Z,21.39
2022-12-27T07:02:42.074Z,21.48
2022-12-27T07:04:43.560Z,21.55
2022-12-27T07:06:44.895Z,20.72
2022-12-27T07:08:46.224Z,21.67
2022-12-27T07:10:47.637Z,21.69
2022-12-27T07:12:48.975Z,21.76
2022-12-27T07:14:50.273Z,21.79
2022-12-27T07:16:51.620Z,21.85
2022-12-27T07:18:52.932Z,21.91
2022-12-27T07:20:54.315Z,21.80
2022-12-27T07:22:58.850Z,21.76
2022-12-27T07:25:00.182Z,21.71
2022-12-27T07:27:02.187Z,21.65
2022-12-27T07:29:03.542Z,21.60
2022-12-27T07:31:04.833Z,21.51
2022-12-27T07:33:06.183Z,21.46
2022-12-27T07:35:07.510Z,21.42
2022-12-27T07:37:08.807Z,21.39
2022-12-27T07:39:10.123Z,21.35
2022-12-27T07:41:11.448Z,21.32
2022-12-27T07:43:12.775Z,21.33
2022-12-27T07:45:14.081Z,21.30
2022-12-27T07:47:15.378Z,21.27
2022-12-27T07:49:18.055Z,21.24
2022-12-27T07:51:19.591Z,21.16
2022-12-27T07:53:20.889Z,21.10
2022-12-27T07:55:22.188Z,21.18
2022-12-27T07:57:23.533Z,21.14
2022-12-27T07:59:24.877Z,21.05
2022-12-27T08:01:26.373Z,20.97
2022-12-27T08:03:27.896Z,20.91
2022-12-27T08:05:29.523Z,20.88
2022-12-27T08:07:30.856Z,20.90
2022-12-27T08:09:32.201Z,20.93
2022-12-27T08:11:33.616Z,20.95
2022-12-27T08:13:34.968Z,21.02
2022-12-27T08:15:36.354Z,21.06
2022-12-27T08:17:37.679Z,21.09
2022-12-27T08:19:39.036Z,21.58
2022-12-27T08:21:40.338Z,22.41
2022-12-27T08:23:41.641Z,22.01
2022-12-27T08:25:48.484Z,21.71
2022-12-27T08:27:50.458Z,21.53
2022-12-27T08:29:51.811Z,21.50
2022-12-27T08:31:53.110Z,21.49
2022-12-27T08:33:58.439Z,21.49
2022-12-27T08:36:00.230Z,21.51
2022-12-27T08:38:01.628Z,21.52
2022-12-27T08:40:03.402Z,21.54
2022-12-27T08:42:04.813Z,21.54
2022-12-27T08:44:06.417Z,21.53
2022-12-27T08:46:08.523Z,21.48
2022-12-27T08:48:10.026Z,21.46
2022-12-27T08:50:11.444Z,21.43
2022-12-27T08:52:12.771Z,21.37
2022-12-27T08:54:14.094Z,21.34
2022-12-27T08:56:15.539Z,21.28
2022-12-27T08:58:19.845Z,21.35
2022-12-27T09:00:21.146Z,21.91
2022-12-27T09:02:22.730Z,22.41
2022-12-27T09:04:24.185Z,22.24
2022-12-27T09:06:25.829Z,21.63
2022-12-27T09:08:27.198Z,18.78
2022-12-27T09:10:28.572Z,17.89
2022-12-27T09:12:29.879Z,17.36
2022-12-27T09:14:31.179Z,17.17
2022-12-27T09:16:34.112Z,17.19
2022-12-27T09:18:38.279Z,18.52
2022-12-27T09:20:39.674Z,19.92
2022-12-27T09:22:40.973Z,20.56
2022-12-27T09:24:42.266Z,20.96
2022-12-27T09:26:46.539Z,20.98
2022-12-27T09:28:47.939Z,21.00
2022-12-27T09:30:49.296Z,20.98
2022-12-27T09:32:50.630Z,21.04
2022-12-27T09:34:51.933Z,21.20
2022-12-27T09:36:53.332Z,21.34
2022-12-27T09:38:54.638Z,21.44
2022-12-27T09:40:55.938Z,21.53
2022-12-27T09:43:12.578Z,21.61
2022-12-27T09:45:18.694Z,21.75
2022-12-27T09:47:19.987Z,21.97
2022-12-27T09:49:24.343Z,21.82
2022-12-27T09:51:28.635Z,21.74
2022-12-27T09:53:29.975Z,21.70
2022-12-27T09:55:31.282Z,21.68
2022-12-27T09:57:32.566Z,21.67
2022-12-27T09:59:34.635Z,21.65
2022-12-27T10:01:36.067Z,21.65
2022-12-27T10:03:37.493Z,21.64
2022-12-27T10:05:39.528Z,21.62
2022-12-27T10:07:40.895Z,21.60
2022-12-27T10:09:42.739Z,21.61
2022-12-27T10:11:44.047Z,21.59
2022-12-27T10:13:48.314Z,21.58
2022-12-27T10:15:55.764Z,21.54
2022-12-27T10:17:57.078Z,21.51
2022-12-27T10:19:58.372Z,21.45
2022-12-27T10:21:59.767Z,21.44
2022-12-27T10:24:01.063Z,21.41
2022-12-27T10:26:02.407Z,21.40
2022-12-27T10:28:03.862Z,21.34
2022-12-27T10:30:05.190Z,21.30
2022-12-27T10:32:06.524Z,21.23
2022-12-27T10:34:10.811Z,21.20
2022-12-27T10:36:12.250Z,22.04
2022-12-27T10:38:13.585Z,22.67
2022-12-27T10:40:14.931Z,22.84
2022-12-27T10:42:16.358Z,22.87
2022-12-27T10:44:17.810Z,22.65
2022-12-27T10:46:20.802Z,22.66
2022-12-27T10:48:22.184Z,22.64
2022-12-27T10:50:23.525Z,22.43
2022-12-27T10:52:24.866Z,22.11
2022-12-27T10:54:26.216Z,21.99
2022-12-27T10:56:27.551Z,21.95
2022-12-27T10:58:28.887Z,21.90
2022-12-27T11:00:30.273Z,22.41
2022-12-27T11:02:31.718Z,22.71
2022-12-27T11:04:33.709Z,22.50
2022-12-27T11:06:35.002Z,23.06
2022-12-27T11:08:36.322Z,22.67
2022-12-27T11:10:37.666Z,22.23
2022-12-27T11:12:39.115Z,22.08
2022-12-27T11:14:40.449Z,22.05
2022-12-27T11:16:41.832Z,22.22
2022-12-27T11:18:43.165Z,21.78
2022-12-27T11:20:44.826Z,21.50
2022-12-27T11:22:46.137Z,21.37
2022-12-27T11:24:47.460Z,21.29
2022-12-27T11:26:53.526Z,21.24
2022-12-27T11:28:55.331Z,21.19
2022-12-27T11:30:56.806Z,21.42
2022-12-27T11:32:58.133Z,21.93
2022-12-27T11:34:59.455Z,21.70
2022-12-27T11:37:06.509Z,21.52
2022-12-27T11:39:07.814Z,21.54
2022-12-27T11:41:09.435Z,21.52
2022-12-27T11:43:10.746Z,21.47
2022-12-27T11:45:12.080Z,21.45
2022-12-27T11:47:13.672Z,22.15
2022-12-27T11:49:15.053Z,22.15
2022-12-27T11:51:16.394Z,21.77
2022-12-27T11:53:17.696Z,21.58
2022-12-27T11:55:19.086Z,21.46
2022-12-27T11:57:20.412Z,21.44
2022-12-27T11:59:21.751Z,21.40
2022-12-27T12:01:23.171Z,21.38
2022-12-27T12:03:24.546Z,21.38
2022-12-27T12:05:25.902Z,21.36
2022-12-27T12:07:30.395Z,21.34
2022-12-27T12:09:31.767Z,21.33
2022-12-27T12:11:33.066Z,21.30
2022-12-27T12:13:34.397Z,21.29
2022-12-27T12:15:35.693Z,21.25
2022-12-27T12:17:39.905Z,21.24
2022-12-27T12:19:41.503Z,21.24
2022-12-27T12:21:45.956Z,21.20
2022-12-27T12:23:47.247Z,21.18
2022-12-27T12:25:51.462Z,21.18
2022-12-27T12:27:52.851Z,21.13
2022-12-27T12:29:54.178Z,21.10
2022-12-27T12:31:55.545Z,21.10
2022-12-27T12:33:59.946Z,21.08
2022-12-27T12:36:01.249Z,21.07
2022-12-27T12:38:02.625Z,21.06
2022-12-27T12:40:03.987Z,21.04
2022-12-27T12:42:05.278Z,21.04
2022-12-27T12:44:09.542Z,21.04
2022-12-27T12:46:10.889Z,21.06
2022-12-27T12:48:12.216Z,21.05
2022-12-27T12:50:13.904Z,21.05
2022-12-27T12:52:15.285Z,21.06
2022-12-27T12:54:16.583Z,21.04
2022-12-27T12:56:17.956Z,21.04
2022-12-27T12:58:19.243Z,21.03
2022-12-27T13:00:21.024Z,21.07
2022-12-27T13:02:22.559Z,21.11
2022-12-27T13:04:26.904Z,21.12
2022-12-27T13:06:28.200Z,21.08
2022-12-27T13:08:29.529Z,21.03
2022-12-27T13:10:30.837Z,20.96
2022-12-27T13:12:32.139Z,20.89
2022-12-27T13:14:33.444Z,20.82
2022-12-27T13:16:34.783Z,20.76
2022-12-27T13:18:36.139Z,20.72
2022-12-27T13:20:40.512Z,20.71
2022-12-27T13:22:41.918Z,20.72
2022-12-27T13:24:43.226Z,20.73
2022-12-27T13:26:44.605Z,20.76
2022-12-27T13:28:45.980Z,20.82
2022-12-27T13:30:47.354Z,20.87
2022-12-27T13:32:48.706Z,20.94
2022-12-27T13:34:53.099Z,20.96
2022-12-27T13:36:54.398Z,21.02
2022-12-27T13:38:55.739Z,21.05
2022-12-27T13:40:57.034Z,21.09
2022-12-27T13:42:58.484Z,21.10
2022-12-27T13:44:59.776Z,21.15
2022-12-27T13:47:01.242Z,21.17
2022-12-27T13:49:02.758Z,21.23
2022-12-27T13:51:04.582Z,21.24
2022-12-27T13:53:05.892Z,21.25
2022-12-27T13:55:07.292Z,21.27
2022-12-27T13:57:08.628Z,21.29
2022-12-27T13:59:09.947Z,21.32
2022-12-27T14:01:11.318Z,21.33
2022-12-27T14:03:12.685Z,21.32
2022-12-27T14:05:14.113Z,21.33
2022-12-27T14:07:15.495Z,21.33
2022-12-27T14:09:16.881Z,21.32
2022-12-27T14:11:18.243Z,21.30
2022-12-27T14:13:19.583Z,21.29
2022-12-27T14:15:24.203Z,21.29
2022-12-27T14:17:25.586Z,21.27
2022-12-27T14:19:26.946Z,21.25
2022-12-27T14:21:28.243Z,21.24
2022-12-27T14:23:29.535Z,21.21
2022-12-27T14:25:30.866Z,21.18
2022-12-27T14:27:32.239Z,21.15
2022-12-27T14:29:33.552Z,21.11
2022-12-27T14:31:34.923Z,21.08
2022-12-27T14:33:36.254Z,21.04
2022-12-27T14:35:37.599Z,21.00
2022-12-27T14:37:38.969Z,20.98
2022-12-27T14:39:40.372Z,20.93
2022-12-27T14:41:41.759Z,20.91
2022-12-27T14:43:43.057Z,20.89
2022-12-27T14:45:45.030Z,20.85
2022-12-27T14:47:46.443Z,20.85
2022-12-27T14:49:47.731Z,20.83
2022-12-27T14:52:11.916Z,20.82
2022-12-27T14:54:10.390Z,20.83
2022-12-27T14:56:12.702Z,20.81
2022-12-27T14:58:14.087Z,20.87
2022-12-27T15:00:15.466Z,20.87
2022-12-27T15:02:17.061Z,20.92
2022-12-27T15:04:18.419Z,20.94
2022-12-27T15:06:19.730Z,20.96
2022-12-27T15:08:21.102Z,20.97
2022-12-27T15:10:22.440Z,21.03
2022-12-27T15:12:23.759Z,21.05
2022-12-27T15:14:25.051Z,21.07
2022-12-27T15:16:26.444Z,21.10
2022-12-27T15:18:27.795Z,21.11
2022-12-27T15:20:29.126Z,21.12
2022-12-27T15:22:30.533Z,21.13
2022-12-27T15:24:41.058Z,21.11
2022-12-27T15:26:42.403Z,21.16
2022-12-27T15:28:43.744Z,21.18
2022-12-27T15:30:45.147Z,21.18
2022-12-27T15:32:52.650Z,21.19
2022-12-27T15:34:54.434Z,21.20
2022-12-27T15:36:55.728Z,21.19
2022-12-27T15:38:57.984Z,21.19
2022-12-27T15:40:59.323Z,21.20
2022-12-27T15:43:00.628Z,21.19
2022-12-27T15:45:01.923Z,21.18
2022-12-27T15:47:06.131Z,21.15
2022-12-27T15:49:07.956Z,21.15
2022-12-27T15:51:09.283Z,21.14
2022-12-27T15:53:13.813Z,21.12
2022-12-27T15:55:15.112Z,21.10
2022-12-27T15:57:16.986Z,21.07
2022-12-27T15:59:18.286Z,21.07
2022-12-27T16:01:25.685Z,21.06
2022-12-27T16:03:27.575Z,21.05
2022-12-27T16:05:30.987Z,21.03
2022-12-27T16:07:32.282Z,21.03
2022-12-27T16:09:33.587Z,21.01
2022-12-27T16:11:34.941Z,21.00
2022-12-27T16:13:41.860Z,20.98
2022-12-27T16:15:44.985Z,20.98
2022-12-27T16:17:49.109Z,20.96
2022-12-27T16:19:50.658Z,20.95
2022-12-27T16:21:51.960Z,20.95
2022-12-27T16:23:53.312Z,20.93
2022-12-27T16:25:54.612Z,20.93
2022-12-27T16:27:58.899Z,20.95
2022-12-27T16:30:00.231Z,20.94
2022-12-27T16:32:01.579Z,20.92
2022-12-27T16:34:09.197Z,20.92
2022-12-27T16:36:10.496Z,20.95
2022-12-27T16:38:11.803Z,21.00
2022-12-27T16:40:13.138Z,20.98
2022-12-27T16:42:14.485Z,20.96
2022-12-27T16:44:15.811Z,20.98
2022-12-27T16:46:18.074Z,21.02
2022-12-27T16:48:20.079Z,21.03
2022-12-27T16:50:21.416Z,21.02
2022-12-27T16:52:22.701Z,21.05
2022-12-27T16:54:24.060Z,21.04
2022-12-27T16:56:25.426Z,21.07
2022-12-27T16:58:27.227Z,21.06
2022-12-27T17:00:28.556Z,21.07
2022-12-27T17:02:30.043Z,21.09
2022-12-27T17:04:31.506Z,21.10
2022-12-27T17:06:34.317Z,21.09
2022-12-27T17:08:39.195Z,21.10
2022-12-27T17:10:40.508Z,21.08
2022-12-27T17:12:41.867Z,21.13
2022-12-27T17:14:44.264Z,21.12
2022-12-27T17:16:48.724Z,21.14
2022-12-27T17:18:50.131Z,21.12
2022-12-27T17:20:52.237Z,21.14
2022-12-27T17:22:53.536Z,21.13
2022-12-27T17:24:54.855Z,21.15
2022-12-27T17:26:56.211Z,21.15
2022-12-27T17:28:57.547Z,21.14
2022-12-27T17:30:58.881Z,21.14
2022-12-27T17:33:00.213Z,21.12
2022-12-27T17:35:01.502Z,21.11
2022-12-27T17:37:03.811Z,21.29
2022-12-27T17:39:05.138Z,21.58
2022-12-27T17:41:10.423Z,21.73
2022-12-27T17:43:35.177Z,21.92
2022-12-27T17:45:36.545Z,21.95
2022-12-27T17:47:37.884Z,21.76
2022-12-27T17:49:39.218Z,21.81
2022-12-27T17:51:44.872Z,21.97
2022-12-27T17:54:04.832Z,22.52
2022-12-27T17:56:24.819Z,22.69
2022-12-27T17:58:26.170Z,22.69
2022-12-27T18:00:29.169Z,22.58
2022-12-27T18:02:30.604Z,22.78
2022-12-27T18:04:34.633Z,22.75
2022-12-27T18:06:35.990Z,22.97
2022-12-27T18:08:37.316Z,22.60
2022-12-27T18:10:38.611Z,22.64
2022-12-27T18:12:42.720Z,22.41
2022-12-27T18:14:44.033Z,22.10
2022-12-27T18:16:48.405Z,22.05
2022-12-27T18:18:52.826Z,21.97
2022-12-27T18:20:54.130Z,21.91
2022-12-27T18:22:55.551Z,22.01
2022-12-27T18:24:57.003Z,21.89
2022-12-27T18:26:58.339Z,21.86
2022-12-27T18:28:59.969Z,21.87
2022-12-27T18:31:01.512Z,21.92
2022-12-27T18:33:11.928Z,21.62
2022-12-27T18:35:13.231Z,21.31
2022-12-27T18:37:14.588Z,21.16
2022-12-27T18:39:15.889Z,21.11
2022-12-27T18:41:17.186Z,21.10
2022-12-27T18:43:21.443Z,21.14
2022-12-27T18:45:22.835Z,21.18
2022-12-27T18:47:24.198Z,21.25
2022-12-27T18:49:25.639Z,21.31
2022-12-27T18:51:26.989Z,21.37
2022-12-27T18:53:29.162Z,21.43
2022-12-27T18:55:32.173Z,21.49
2022-12-27T18:57:33.736Z,21.54
2022-12-27T18:59:36.055Z,21.60
2022-12-27T19:01:38.189Z,21.66
2022-12-27T19:03:41.021Z,21.69
2022-12-27T19:05:43.201Z,21.72
2022-12-27T19:07:44.503Z,21.75
2022-12-27T19:09:45.823Z,21.77
2022-12-27T19:11:47.171Z,21.78
2022-12-27T19:13:48.502Z,21.78
2022-12-27T19:15:52.758Z,21.78
2022-12-27T19:17:54.260Z,21.76
2022-12-27T19:19:56.164Z,21.75
2022-12-27T19:21:57.712Z,21.71
2022-12-27T19:23:59.049Z,21.68
2022-12-27T19:26:00.334Z,21.92
2022-12-27T19:28:01.849Z,22.17
2022-12-27T19:30:04.463Z,22.31
2022-12-27T19:32:05.863Z,22.49
2022-12-27T19:34:16.179Z,23.25
2022-12-27T19:36:17.997Z,22.89
2022-12-27T19:38:19.427Z,23.05
2022-12-27T19:40:20.760Z,22.90
2022-12-27T19:42:22.090Z,22.93
2022-12-27T19:44:23.414Z,22.72
2022-12-27T19:46:30.967Z,22.70
2022-12-27T19:48:32.748Z,22.74
2022-12-27T19:50:34.063Z,22.42
2022-12-27T19:52:35.420Z,22.31
2022-12-27T19:54:39.417Z,22.59
2022-12-27T19:56:40.732Z,22.79
2022-12-27T19:58:42.651Z,22.47
2022-12-27T20:00:44.025Z,22.73
2022-12-27T20:02:48.466Z,22.83
2022-12-27T20:04:50.104Z,22.43
2022-12-27T20:06:51.422Z,22.19
2022-12-27T20:08:52.749Z,22.07
2022-12-27T20:10:54.142Z,22.26
2022-12-27T20:12:55.475Z,22.06
2022-12-27T20:14:56.858Z,21.69
2022-12-27T20:16:58.249Z,22.01
2022-12-27T20:18:59.798Z,21.96
2022-12-27T20:21:07.077Z,22.06
2022-12-27T20:23:08.401Z,22.09
2022-12-27T20:25:09.709Z,22.06
2022-12-27T20:27:11.274Z,22.18
2022-12-27T20:29:12.790Z,22.14
2022-12-27T20:31:14.179Z,22.10
2022-12-27T20:33:15.875Z,22.13
2022-12-27T20:35:17.210Z,22.18
2022-12-27T20:37:24.127Z,22.38
2022-12-27T20:39:25.943Z,22.49
2022-12-27T20:41:28.496Z,22.58
2022-12-27T20:43:29.794Z,22.63
2022-12-27T20:45:31.162Z,22.66
2022-12-27T20:47:32.503Z,22.72
2022-12-27T20:49:33.853Z,22.78
2022-12-27T20:51:35.146Z,22.76
2022-12-27T20:53:40.341Z,22.80
2022-12-27T20:55:41.917Z,22.62
2022-12-27T20:57:43.331Z,22.63
2022-12-27T20:59:44.835Z,22.69
2022-12-27T21:01:47.118Z,22.68
2022-12-27T21:03:50.624Z,22.71
2022-12-27T21:05:51.960Z,23.05
2022-12-27T21:07:53.263Z,22.52
2022-12-27T21:09:57.759Z,22.24
2022-12-27T21:11:59.310Z,22.24
2022-12-27T21:14:00.917Z,22.23
2022-12-27T21:16:04.941Z,22.20
2022-12-27T21:18:06.313Z,22.19
2022-12-27T21:20:10.957Z,22.14
2022-12-27T21:22:12.300Z,22.08
2022-12-27T21:24:14.361Z,22.06
2022-12-27T21:26:15.790Z,22.03
2022-12-27T21:28:17.081Z,21.80
2022-12-27T21:30:18.476Z,21.54
2022-12-27T21:32:19.815Z,21.69
2022-12-27T21:34:24.363Z,21.78
2022-12-27T21:36:25.748Z,21.85
2022-12-27T21:38:27.059Z,21.90
2022-12-27T21:40:31.020Z,21.90
2022-12-27T21:42:32.359Z,21.92
2022-12-27T21:44:35.407Z,21.90
2022-12-27T21:46:36.822Z,21.94
2022-12-27T21:48:38.304Z,22.42
2022-12-27T21:50:42.457Z,22.78
2022-12-27T21:52:43.741Z,22.41
2022-12-27T21:54:45.101Z,22.32
2022-12-27T21:56:46.723Z,22.35
2022-12-27T21:58:57.618Z,22.39
2022-12-27T22:01:01.431Z,22.47
2022-12-27T22:03:05.172Z,22.68
2022-12-27T22:05:06.618Z,22.75
2022-12-27T22:07:10.751Z,22.82
2022-12-27T22:09:12.172Z,22.88
2022-12-27T22:11:13.497Z,22.90
2022-12-27T22:13:14.791Z,22.88
2022-12-27T22:15:16.094Z,22.48
2022-12-27T22:17:17.423Z,22.48
2022-12-27T22:19:18.864Z,22.57
2022-12-27T22:21:20.196Z,22.60
2022-12-27T22:23:21.495Z,22.62
2022-12-27T22:25:22.828Z,22.63
2022-12-27T22:27:24.160Z,22.60
2022-12-27T22:29:26.736Z,22.58
2022-12-27T22:31:30.731Z,22.57
2022-12-27T22:33:32.135Z,22.53
2022-12-27T22:35:33.434Z,22.50
2022-12-27T22:37:34.785Z,22.19
2022-12-27T22:39:36.091Z,22.08
2022-12-27T22:41:37.440Z,22.48
2022-12-27T22:43:38.797Z,22.64
2022-12-27T22:45:40.086Z,22.29
2022-12-27T22:47:41.448Z,22.13
2022-12-27T22:49:42.926Z,21.95
2022-12-27T22:51:44.434Z,21.74
2022-12-27T22:53:45.742Z,22.14
2022-12-27T22:55:48.955Z,22.37
2022-12-27T22:57:50.242Z,22.44
2022-12-27T22:59:51.539Z,22.72
2022-12-27T23:01:53.013Z,22.35
2022-12-27T23:03:54.353Z,22.14
2022-12-27T23:05:55.643Z,22.05
2022-12-27T23:08:04.547Z,22.03
2022-12-27T23:10:07.612Z,21.99
2022-12-27T23:12:08.910Z,22.32
2022-12-27T23:14:10.243Z,22.27
2022-12-27T23:16:11.650Z,21.84
2022-12-27T23:18:12.993Z,21.92
2022-12-27T23:20:14.336Z,22.08
2022-12-27T23:22:15.667Z,22.25
2022-12-27T23:24:16.967Z,22.25
2022-12-27T23:26:18.366Z,22.29
2022-12-27T23:28:19.692Z,22.36
2022-12-27T23:30:22.985Z,22.44
2022-12-27T23:32:24.298Z,22.51
2022-12-27T23:34:28.681Z,22.88
2022-12-27T23:36:30.227Z,22.87
2022-12-27T23:38:31.519Z,22.87
2022-12-27T23:40:32.806Z,22.86
2022-12-27T23:42:34.153Z,22.99
2022-12-27T23:44:35.509Z,22.55
2022-12-27T23:46:37.527Z,22.81
2022-12-27T23:48:38.847Z,22.94
2022-12-27T23:50:40.185Z,22.71
2022-12-27T23:52:41.520Z,22.64
2022-12-27T23:54:42.855Z,22.89
2022-12-27T23:56:44.184Z,23.01
2022-12-27T23:58:45.524Z,22.73
